createdAt,value
2018-06-29T00:00:51.193Z,19.60
2018-06-29T00:02:54.983Z,19.50
2018-06-29T00:04:58.877Z,19.50
2018-06-29T00:07:02.628Z,19.50
2018-06-29T00:09:08.128Z,19.50
2018-06-29T00:11:12.011Z,19.50
2018-06-29T00:13:15.772Z,19.40
2018-06-29T00:15:19.808Z,19.40
2018-06-29T00:17:23.555Z,19.30
2018-06-29T00:19:27.470Z,19.30
2018-06-29T00:21:31.248Z,19.30
2018-06-29T00:23:35.054Z,19.30
2018-06-29T00:25:38.789Z,19.30
2018-06-29T00:27:42.734Z,19.20
2018-06-29T00:29:46.583Z,19.20
2018-06-29T00:31:51.797Z,19.10
2018-06-29T00:33:55.572Z,19.00
2018-06-29T00:35:59.528Z,19.00
2018-06-29T00:38:03.339Z,19.10
2018-06-29T00:40:07.282Z,19.10
2018-06-29T00:42:11.078Z,19.10
2018-06-29T00:44:14.986Z,18.90
2018-06-29T00:46:18.776Z,19.00
2018-06-29T00:48:22.624Z,19.00
2018-06-29T00:50:26.400Z,19.00
2018-06-29T00:52:30.278Z,19.00
2018-06-29T00:54:34.043Z,19.00
2018-06-29T00:56:38.135Z,18.90
2018-06-29T00:58:41.900Z,18.90
2018-06-29T01:00:45.851Z,18.80
2018-06-29T01:02:49.640Z,18.70
2018-06-29T01:04:53.525Z,18.80
2018-06-29T01:06:57.315Z,18.80
2018-06-29T01:09:01.190Z,18.70
2018-06-29T01:11:05.023Z,18.70
2018-06-29T01:13:09.118Z,18.60
2018-06-29T01:15:12.897Z,18.60
2018-06-29T01:17:16.759Z,18.60
2018-06-29T01:19:20.558Z,18.50
2018-06-29T01:21:24.471Z,18.60
2018-06-29T01:23:28.335Z,18.50
2018-06-29T01:25:32.319Z,18.50
2018-06-29T01:27:36.104Z,18.40
2018-06-29T01:29:39.979Z,18.30
2018-06-29T01:31:43.738Z,18.40
2018-06-29T01:33:47.618Z,18.30
2018-06-29T01:35:51.375Z,18.20
2018-06-29T01:37:55.277Z,18.10
2018-06-29T01:39:59.024Z,18.10
2018-06-29T01:42:02.891Z,18.10
2018-06-29T01:44:06.726Z,18.00
2018-06-29T01:46:10.612Z,18.00
2018-06-29T01:48:14.386Z,18.00
2018-06-29T01:50:18.273Z,17.80
2018-06-29T01:52:22.067Z,17.80
2018-06-29T01:54:26.007Z,17.90
2018-06-29T01:56:29.811Z,17.80
2018-06-29T01:58:33.739Z,17.90
2018-06-29T02:00:37.533Z,17.80
2018-06-29T02:02:41.487Z,17.70
2018-06-29T02:04:45.211Z,17.70
2018-06-29T02:06:49.057Z,17.70
2018-06-29T02:08:52.823Z,17.70
2018-06-29T02:10:56.665Z,17.70
2018-06-29T02:13:00.405Z,17.60
2018-06-29T02:15:04.776Z,17.50
2018-06-29T02:17:08.522Z,17.50
2018-06-29T02:19:12.471Z,17.50
2018-06-29T02:21:16.249Z,17.50
2018-06-29T02:23:20.149Z,17.50
2018-06-29T02:25:23.939Z,17.40
2018-06-29T02:27:27.840Z,17.40
2018-06-29T02:29:31.614Z,17.40
2018-06-29T02:31:35.620Z,17.40
2018-06-29T02:33:39.398Z,17.40
2018-06-29T02:35:43.307Z,17.30
2018-06-29T02:37:47.106Z,17.30
2018-06-29T02:39:50.988Z,17.20
2018-06-29T02:41:54.774Z,17.20
2018-06-29T02:43:58.658Z,17.10
2018-06-29T02:46:02.454Z,17.00
2018-06-29T02:50:09.878Z,17.10
2018-06-29T02:52:13.772Z,17.10
2018-06-29T02:54:17.550Z,17.10
2018-06-29T02:56:21.457Z,17.00
2018-06-29T02:58:25.262Z,17.00
2018-06-29T03:00:29.189Z,17.00
2018-06-29T03:02:33.382Z,16.90
2018-06-29T03:04:37.692Z,16.90
2018-06-29T03:08:45.797Z,16.90
2018-06-29T03:10:49.647Z,16.90
2018-06-29T03:12:53.609Z,16.80
2018-06-29T03:14:57.475Z,16.80
2018-06-29T03:17:01.392Z,16.70
2018-06-29T03:19:05.146Z,16.80
2018-06-29T03:21:09.852Z,16.70
2018-06-29T03:23:17.567Z,16.60
2018-06-29T03:25:21.552Z,16.50
2018-06-29T03:27:25.414Z,16.60
2018-06-29T03:29:29.358Z,16.60
2018-06-29T03:31:33.186Z,16.60
2018-06-29T03:33:37.044Z,16.70
2018-06-29T03:35:40.890Z,16.60
2018-06-29T03:37:44.823Z,16.50
2018-06-29T03:39:48.616Z,16.50
2018-06-29T03:41:52.534Z,16.40
2018-06-29T03:43:56.310Z,16.30
2018-06-29T03:46:00.406Z,16.30
2018-06-29T03:48:04.213Z,16.30
2018-06-29T03:50:30.599Z,16.50
2018-06-29T03:52:34.472Z,16.40
2018-06-29T03:54:38.187Z,16.40
2018-06-29T03:56:42.006Z,16.30
2018-06-29T03:58:45.831Z,16.30
2018-06-29T04:00:49.687Z,16.30
2018-06-29T04:02:55.771Z,16.40
2018-06-29T04:04:59.735Z,16.40
2018-06-29T04:07:03.557Z,16.50
2018-06-29T04:09:09.192Z,16.40
2018-06-29T04:11:13.068Z,16.40
2018-06-29T04:13:16.894Z,16.40
2018-06-29T04:15:20.882Z,16.40
2018-06-29T04:17:24.849Z,16.40
2018-06-29T04:19:28.736Z,16.50
2018-06-29T04:21:32.646Z,16.60
2018-06-29T04:23:36.590Z,16.60
2018-06-29T04:25:40.435Z,16.70
2018-06-29T04:27:44.303Z,16.60
2018-06-29T04:29:48.080Z,16.60
2018-06-29T04:31:51.957Z,16.60
2018-06-29T04:33:55.724Z,16.70
2018-06-29T04:35:59.630Z,16.70
2018-06-29T04:38:03.761Z,17.00
2018-06-29T04:40:07.684Z,17.20
2018-06-29T04:42:14.872Z,17.40
2018-06-29T04:44:18.825Z,17.30
2018-06-29T04:46:22.592Z,17.50
2018-06-29T04:48:26.474Z,17.80
2018-06-29T04:50:30.246Z,17.60
2018-06-29T04:52:34.146Z,17.80
2018-06-29T04:54:38.251Z,17.50
2018-06-29T04:56:42.153Z,17.30
2018-06-29T04:58:45.925Z,17.50
2018-06-29T05:00:51.396Z,17.50
2018-06-29T05:02:56.467Z,17.80
2018-06-29T05:05:00.385Z,18.00
2018-06-29T05:07:04.752Z,18.10
2018-06-29T05:09:09.140Z,18.30
2018-06-29T05:11:12.945Z,18.20
2018-06-29T05:13:16.958Z,18.40
2018-06-29T05:15:20.781Z,18.40
2018-06-29T05:17:25.383Z,18.50
2018-06-29T05:19:29.342Z,18.40
2018-06-29T05:21:33.293Z,18.60
2018-06-29T05:23:37.037Z,18.50
2018-06-29T05:25:40.986Z,18.60
2018-06-29T05:27:44.945Z,18.50
2018-06-29T05:29:48.816Z,18.80
2018-06-29T05:31:52.583Z,19.20
2018-06-29T05:33:56.514Z,18.90
2018-06-29T05:36:00.855Z,18.90
2018-06-29T05:38:04.928Z,18.50
2018-06-29T05:40:08.775Z,18.60
2018-06-29T05:42:12.690Z,19.30
2018-06-29T05:44:16.443Z,19.40
2018-06-29T05:46:20.495Z,19.50
2018-06-29T05:51:02.309Z,19.60
2018-06-29T05:53:06.464Z,20.10
2018-06-29T05:55:10.501Z,20.20
2018-06-29T05:57:14.266Z,20.00
2018-06-29T05:59:18.260Z,19.70
2018-06-29T06:01:22.160Z,20.20
2018-06-29T06:03:26.053Z,20.30
2018-06-29T06:05:29.896Z,20.40
2018-06-29T06:07:33.800Z,20.50
2018-06-29T06:09:37.571Z,20.60
2018-06-29T06:11:41.776Z,20.20
2018-06-29T06:13:45.547Z,20.40
2018-06-29T06:15:49.554Z,20.80
2018-06-29T06:17:53.401Z,20.30
2018-06-29T06:20:05.397Z,20.50
2018-06-29T06:22:09.825Z,21.00
2018-06-29T06:24:13.733Z,20.40
2018-06-29T06:26:17.667Z,20.60
2018-06-29T06:28:21.535Z,21.00
2018-06-29T06:30:25.503Z,21.30
2018-06-29T06:32:29.413Z,20.80
2018-06-29T06:34:33.539Z,20.50
2018-06-29T06:36:37.358Z,20.30
2018-06-29T06:38:41.302Z,20.80
2018-06-29T06:40:45.100Z,21.60
2018-06-29T06:42:48.989Z,22.20
2018-06-29T06:44:52.820Z,22.30
2018-06-29T06:46:56.834Z,22.60
2018-06-29T06:49:00.624Z,21.70
2018-06-29T06:51:04.580Z,21.50
2018-06-29T06:53:08.430Z,21.60
2018-06-29T06:55:12.320Z,22.40
2018-06-29T06:57:16.128Z,22.80
2018-06-29T06:59:20.179Z,22.90
2018-06-29T07:01:23.956Z,23.10
2018-06-29T07:03:27.920Z,23.20
2018-06-29T07:05:31.781Z,22.30
2018-06-29T07:07:35.700Z,23.10
2018-06-29T07:09:39.490Z,23.60
2018-06-29T07:11:43.427Z,23.40
2018-06-29T07:13:47.485Z,22.70
2018-06-29T07:15:51.517Z,22.40
2018-06-29T07:17:55.353Z,22.80
2018-06-29T07:19:59.330Z,24.00
2018-06-29T07:22:03.154Z,24.80
2018-06-29T07:24:07.202Z,25.00
2018-06-29T07:26:11.102Z,23.60
2018-06-29T07:28:15.105Z,23.70
2018-06-29T07:30:18.997Z,24.50
2018-06-29T07:32:22.916Z,24.60
2018-06-29T07:34:26.752Z,24.90
2018-06-29T07:36:30.744Z,24.80
2018-06-29T07:38:34.556Z,24.50
2018-06-29T07:40:38.558Z,23.80
2018-06-29T07:42:42.421Z,24.20
2018-06-29T07:44:46.318Z,23.80
2018-06-29T07:46:50.102Z,25.00
2018-06-29T07:48:53.996Z,25.60
2018-06-29T07:50:57.797Z,25.20
2018-06-29T07:53:01.686Z,25.70
2018-06-29T07:55:05.634Z,25.10
2018-06-29T07:57:09.544Z,24.60
2018-06-29T07:59:13.628Z,25.70
2018-06-29T08:01:17.523Z,26.70
2018-06-29T08:03:21.281Z,26.10
2018-06-29T08:05:25.157Z,26.80
2018-06-29T08:07:28.964Z,25.80
2018-06-29T08:09:32.834Z,25.70
2018-06-29T08:13:40.230Z,25.50
2018-06-29T08:15:44.011Z,26.60
2018-06-29T08:17:47.923Z,26.30
2018-06-29T08:19:51.816Z,27.10
2018-06-29T08:21:55.811Z,27.10
2018-06-29T08:23:59.610Z,27.60
2018-06-29T08:26:15.460Z,26.80
2018-06-29T08:28:19.326Z,26.10
2018-06-29T08:30:23.158Z,27.00
2018-06-29T08:32:27.087Z,27.30
2018-06-29T08:34:30.901Z,26.90
2018-06-29T08:36:34.864Z,28.20
2018-06-29T08:38:39.041Z,28.20
2018-06-29T08:40:42.932Z,29.10
2018-06-29T08:42:46.789Z,27.90
2018-06-29T08:44:50.684Z,27.10
2018-06-29T08:46:54.495Z,28.20
2018-06-29T08:48:58.369Z,27.70
2018-06-29T08:51:02.231Z,27.60
2018-06-29T08:53:06.112Z,28.50
2018-06-29T08:55:10.048Z,28.20
2018-06-29T08:57:13.924Z,27.70
2018-06-29T08:59:17.740Z,28.10
2018-06-29T09:01:21.732Z,27.90
2018-06-29T09:03:25.477Z,28.50
2018-06-29T09:05:29.373Z,28.70
2018-06-29T09:07:33.174Z,28.50
2018-06-29T09:09:37.326Z,27.90
2018-06-29T09:11:41.112Z,28.10
2018-06-29T09:13:45.031Z,28.30
2018-06-29T09:15:48.807Z,29.00
2018-06-29T09:17:52.772Z,29.30
2018-06-29T09:19:56.564Z,30.10
2018-06-29T09:22:00.503Z,29.20
2018-06-29T09:24:04.480Z,29.30
2018-06-29T09:26:08.433Z,29.60
2018-06-29T09:28:12.235Z,28.80
2018-06-29T09:30:16.201Z,28.30
2018-06-29T09:32:19.996Z,29.20
2018-06-29T09:34:23.963Z,30.00
2018-06-29T09:36:27.882Z,28.50
2018-06-29T09:38:31.720Z,28.90
2018-06-29T09:40:35.510Z,28.60
2018-06-29T09:42:39.601Z,28.40
2018-06-29T09:44:43.295Z,29.10
2018-06-29T09:46:47.322Z,28.40
2018-06-29T09:48:51.102Z,28.50
2018-06-29T09:50:54.980Z,29.50
2018-06-29T09:52:58.780Z,29.90
2018-06-29T09:55:02.699Z,29.50
2018-06-29T09:57:06.521Z,29.00
2018-06-29T09:59:11.552Z,28.40
2018-06-29T10:01:15.671Z,28.90
2018-06-29T10:03:19.536Z,28.30
2018-06-29T10:05:23.452Z,28.70
2018-06-29T10:07:27.235Z,28.60
2018-06-29T10:09:31.113Z,30.10
2018-06-29T10:11:34.911Z,29.20
2018-06-29T10:13:38.819Z,29.90
2018-06-29T10:15:42.628Z,27.90
2018-06-29T10:17:46.632Z,28.10
2018-06-29T10:19:50.555Z,28.70
2018-06-29T10:21:54.570Z,28.00
2018-06-29T10:23:58.381Z,28.50
2018-06-29T10:26:02.322Z,28.70
2018-06-29T10:28:06.358Z,29.20
2018-06-29T10:30:10.436Z,27.90
2018-06-29T10:32:14.301Z,28.60
2018-06-29T10:34:18.197Z,28.40
2018-06-29T10:36:22.000Z,29.60
2018-06-29T10:38:25.988Z,30.30
2018-06-29T10:40:29.860Z,29.70
2018-06-29T10:42:33.735Z,30.50
2018-06-29T10:44:37.627Z,29.90
2018-06-29T10:46:42.288Z,30.20
2018-06-29T10:48:46.111Z,30.80
2018-06-29T10:50:50.097Z,30.30
2018-06-29T10:52:54.057Z,30.50
2018-06-29T10:54:57.920Z,29.70
2018-06-29T10:57:01.759Z,29.30
2018-06-29T10:59:05.786Z,28.30
2018-06-29T11:01:09.758Z,27.90
2018-06-29T11:03:13.705Z,28.00
2018-06-29T11:05:17.506Z,28.80
2018-06-29T11:07:21.451Z,29.40
2018-06-29T11:09:25.278Z,28.60
2018-06-29T11:11:29.260Z,29.20
2018-06-29T11:13:33.048Z,29.20
2018-06-29T11:15:36.940Z,29.10
2018-06-29T11:17:40.716Z,29.40
2018-06-29T11:19:44.693Z,29.40
2018-06-29T11:21:48.574Z,28.60
2018-06-29T11:23:52.499Z,29.20
2018-06-29T11:25:56.423Z,29.40
2018-06-29T11:28:00.317Z,29.70
2018-06-29T11:30:04.280Z,29.10
2018-06-29T11:32:08.618Z,29.20
2018-06-29T11:34:12.886Z,29.30
2018-06-29T11:36:16.856Z,29.50
2018-06-29T11:38:20.804Z,29.10
2018-06-29T11:40:24.705Z,29.10
2018-06-29T11:42:28.656Z,28.90
2018-06-29T11:44:32.572Z,29.30
2018-06-29T11:46:36.918Z,29.60
2018-06-29T11:48:40.968Z,28.90
2018-06-29T11:50:45.138Z,28.90
2018-06-29T11:52:49.413Z,28.90
2018-06-29T11:54:53.721Z,29.00
2018-06-29T11:59:01.236Z,28.60
2018-06-29T12:01:05.385Z,29.00
2018-06-29T12:03:09.349Z,29.10
2018-06-29T12:05:13.315Z,29.40
2018-06-29T12:07:17.178Z,29.30
2018-06-29T12:09:21.276Z,28.80
2018-06-29T12:11:25.045Z,28.50
2018-06-29T12:13:28.968Z,28.60
2018-06-29T12:15:32.801Z,28.20
2018-06-29T12:17:36.830Z,27.90
2018-06-29T12:19:40.601Z,28.10
2018-06-29T12:21:44.587Z,28.70
2018-06-29T12:23:48.431Z,28.90
2018-06-29T12:25:52.382Z,29.30
2018-06-29T12:27:56.350Z,29.30
2018-06-29T12:30:00.215Z,29.50
2018-06-29T12:32:03.996Z,29.50
2018-06-29T12:34:07.968Z,29.50
2018-06-29T12:36:11.873Z,29.40
2018-06-29T12:38:15.868Z,28.90
2018-06-29T12:40:19.781Z,28.70
2018-06-29T12:42:23.792Z,29.10
2018-06-29T12:44:27.594Z,29.50
2018-06-29T12:46:31.516Z,29.40
2018-06-29T12:48:35.384Z,29.20
2018-06-29T12:50:39.302Z,28.90
2018-06-29T12:52:43.082Z,29.10
2018-06-29T12:54:47.353Z,29.20
2018-06-29T12:56:51.444Z,29.00
2018-06-29T12:58:55.542Z,28.80
2018-06-29T13:00:59.441Z,28.80
2018-06-29T13:03:03.429Z,29.00
2018-06-29T13:05:07.340Z,29.10
2018-06-29T13:07:11.302Z,29.40
2018-06-29T13:09:16.919Z,29.40
2018-06-29T13:11:21.037Z,29.00
2018-06-29T13:13:24.847Z,29.10
2018-06-29T13:15:28.877Z,29.40
2018-06-29T13:17:32.748Z,29.60
2018-06-29T13:19:36.718Z,29.80
2018-06-29T13:21:40.562Z,29.40
2018-06-29T13:23:44.466Z,29.00
2018-06-29T13:25:48.310Z,29.10
2018-06-29T13:27:52.221Z,29.10
2018-06-29T13:29:55.991Z,28.80
2018-06-29T13:31:59.884Z,28.60
2018-06-29T13:34:03.798Z,28.80
2018-06-29T13:36:07.818Z,28.90
2018-06-29T13:38:11.767Z,28.80
2018-06-29T13:40:15.730Z,28.90
2018-06-29T13:42:20.063Z,29.00
2018-06-29T13:44:23.942Z,29.10
2018-06-29T13:46:27.749Z,28.90
2018-06-29T13:48:31.620Z,29.10
2018-06-29T13:50:35.583Z,28.70
2018-06-29T13:52:39.519Z,29.00
2018-06-29T13:54:43.428Z,29.00
2018-06-29T13:56:47.375Z,28.90
2018-06-29T13:58:51.286Z,28.90
2018-06-29T14:00:55.184Z,28.80
2018-06-29T14:02:59.094Z,28.50
2018-06-29T14:05:03.062Z,28.60
2018-06-29T14:07:06.896Z,28.70
2018-06-29T14:09:10.839Z,28.70
2018-06-29T14:11:16.062Z,28.60
2018-06-29T14:13:20.092Z,28.90
2018-06-29T14:15:24.492Z,28.90
2018-06-29T14:17:28.446Z,29.00
2018-06-29T14:19:32.279Z,28.90
2018-06-29T14:21:36.216Z,29.00
2018-06-29T14:23:40.016Z,29.20
2018-06-29T14:25:43.892Z,29.20
2018-06-29T14:27:47.698Z,28.60
2018-06-29T14:29:51.709Z,28.50
2018-06-29T14:31:55.530Z,28.50
2018-06-29T14:33:59.477Z,28.50
2018-06-29T14:36:03.484Z,28.80
2018-06-29T14:38:07.463Z,28.50
2018-06-29T14:40:11.273Z,28.50
2018-06-29T14:42:15.171Z,28.70
2018-06-29T14:44:18.960Z,28.60
2018-06-29T14:46:22.882Z,28.50
2018-06-29T14:50:30.463Z,28.60
2018-06-29T14:52:34.801Z,28.60
2018-06-29T14:54:38.761Z,28.60
2018-06-29T14:56:42.636Z,28.80
2018-06-29T14:58:46.625Z,28.80
2018-06-29T15:00:50.476Z,28.70
2018-06-29T15:02:54.470Z,28.50
2018-06-29T15:04:58.323Z,28.40
2018-06-29T15:07:02.404Z,28.40
2018-06-29T15:09:08.515Z,28.50
2018-06-29T15:11:12.515Z,28.60
2018-06-29T15:13:16.341Z,28.80
2018-06-29T15:15:20.318Z,28.90
2018-06-29T15:17:24.210Z,28.90
2018-06-29T15:19:28.157Z,28.80
2018-06-29T15:21:32.051Z,29.00
2018-06-29T15:23:36.636Z,28.80
2018-06-29T15:25:40.462Z,28.80
2018-06-29T15:27:44.468Z,28.60
2018-06-29T15:29:48.291Z,28.50
2018-06-29T15:31:52.264Z,28.40
2018-06-29T15:33:56.099Z,28.40
2018-06-29T15:36:00.062Z,28.50
2018-06-29T15:38:03.875Z,28.60
2018-06-29T15:40:07.850Z,28.40
2018-06-29T15:42:11.661Z,28.20
2018-06-29T15:44:15.583Z,28.20
2018-06-29T15:46:19.386Z,28.30
2018-06-29T15:48:23.340Z,28.10
2018-06-29T15:50:27.164Z,28.10
2018-06-29T15:52:31.069Z,28.10
2018-06-29T15:54:34.949Z,28.20
2018-06-29T15:56:38.942Z,28.30
2018-06-29T15:58:42.825Z,28.20
2018-06-29T16:00:46.779Z,28.30
2018-06-29T16:02:50.549Z,28.20
2018-06-29T16:04:54.520Z,28.20
2018-06-29T16:06:58.398Z,28.40
2018-06-29T16:09:02.423Z,28.30
2018-06-29T16:11:06.251Z,28.20
2018-06-29T16:13:10.194Z,28.00
2018-06-29T16:15:14.023Z,28.20
2018-06-29T16:17:17.971Z,28.20
2018-06-29T16:19:21.874Z,28.20
2018-06-29T16:21:25.778Z,28.20
2018-06-29T16:23:29.736Z,28.10
2018-06-29T16:25:33.739Z,28.10
2018-06-29T16:27:37.615Z,28.00
2018-06-29T16:29:41.621Z,28.10
2018-06-29T16:31:45.451Z,28.20
2018-06-29T16:33:49.384Z,28.20
2018-06-29T16:35:53.186Z,28.00
2018-06-29T16:37:57.230Z,28.00
2018-06-29T16:40:01.058Z,27.90
2018-06-29T16:42:05.057Z,27.90
2018-06-29T16:44:08.997Z,28.10
2018-06-29T16:46:13.004Z,28.10
2018-06-29T16:48:16.918Z,28.10
2018-06-29T16:50:20.950Z,27.90
2018-06-29T16:52:24.882Z,27.80
2018-06-29T16:54:28.844Z,27.80
2018-06-29T16:56:32.729Z,27.80
2018-06-29T16:58:36.794Z,27.70
2018-06-29T17:00:40.635Z,27.70
2018-06-29T17:02:44.672Z,27.90
2018-06-29T17:04:48.508Z,27.80
2018-06-29T17:06:52.613Z,27.70
2018-06-29T17:08:56.402Z,27.70
2018-06-29T17:11:00.336Z,27.70
2018-06-29T17:13:04.116Z,27.50
2018-06-29T17:15:08.422Z,27.50
2018-06-29T17:17:12.185Z,27.40
2018-06-29T17:19:16.188Z,27.40
2018-06-29T17:21:19.971Z,27.50
2018-06-29T17:23:23.889Z,27.40
2018-06-29T17:25:27.666Z,27.30
2018-06-29T17:27:32.826Z,27.20
2018-06-29T17:29:36.744Z,27.20
2018-06-29T17:31:40.553Z,27.30
2018-06-29T17:33:46.387Z,27.30
2018-06-29T17:35:50.273Z,27.30
2018-06-29T17:38:14.287Z,27.10
2018-06-29T17:40:37.057Z,27.10
2018-06-29T17:42:41.028Z,26.90
2018-06-29T17:44:44.901Z,27.00
2018-06-29T17:46:49.865Z,26.90
2018-06-29T17:48:54.114Z,26.90
2018-06-29T17:50:58.632Z,26.80
2018-06-29T17:53:02.462Z,26.80
2018-06-29T17:55:06.624Z,26.70
2018-06-29T17:57:10.500Z,26.70
2018-06-29T17:59:14.559Z,26.70
2018-06-29T18:01:18.378Z,26.70
2018-06-29T18:03:22.275Z,26.70
2018-06-29T18:05:26.128Z,26.50
2018-06-29T18:07:30.120Z,26.50
2018-06-29T18:09:34.036Z,26.50
2018-06-29T18:11:38.097Z,26.40
2018-06-29T18:13:41.923Z,26.40
2018-06-29T18:15:47.040Z,26.30
2018-06-29T18:17:51.055Z,26.40
2018-06-29T18:19:54.852Z,26.30
2018-06-29T18:21:58.774Z,26.30
2018-06-29T18:24:02.580Z,26.20
2018-06-29T18:26:06.510Z,26.10
2018-06-29T18:28:10.502Z,26.10
2018-06-29T18:30:14.434Z,26.10
2018-06-29T18:32:18.330Z,26.10
2018-06-29T18:34:22.265Z,26.10
2018-06-29T18:36:26.056Z,26.00
2018-06-29T18:38:31.241Z,25.90
2018-06-29T18:40:35.223Z,25.90
2018-06-29T18:42:39.172Z,25.80
2018-06-29T18:44:43.145Z,25.70
2018-06-29T18:46:46.981Z,25.60
2018-06-29T18:48:51.009Z,25.60
2018-06-29T18:50:54.799Z,25.50
2018-06-29T18:52:58.756Z,25.50
2018-06-29T18:55:02.571Z,25.50
2018-06-29T18:57:06.593Z,25.50
2018-06-29T18:59:14.461Z,25.40
2018-06-29T19:01:18.440Z,25.30
2018-06-29T19:03:22.217Z,25.30
2018-06-29T19:05:26.139Z,25.30
2018-06-29T19:07:29.918Z,25.30
2018-06-29T19:09:33.995Z,25.30
2018-06-29T19:11:38.249Z,25.20
2018-06-29T19:13:42.495Z,25.20
2018-06-29T19:15:46.456Z,25.10
2018-06-29T19:17:50.391Z,25.10
2018-06-29T19:19:54.277Z,25.00
2018-06-29T19:21:58.243Z,25.00
2018-06-29T19:24:02.083Z,24.90
2018-06-29T19:26:07.205Z,24.80
2018-06-29T19:28:11.220Z,24.80
2018-06-29T19:30:15.129Z,24.60
2018-06-29T19:32:19.104Z,24.50
2018-06-29T19:34:22.901Z,24.40
2018-06-29T19:36:27.001Z,24.40
2018-06-29T19:38:30.984Z,24.30
2018-06-29T19:40:34.897Z,24.30
2018-06-29T19:42:38.698Z,24.20
2018-06-29T19:44:42.629Z,24.00
2018-06-29T19:46:46.529Z,23.80
2018-06-29T19:48:50.480Z,23.80
2018-06-29T19:50:54.260Z,23.70
2018-06-29T19:52:58.251Z,23.60
2018-06-29T19:55:02.283Z,23.50
2018-06-29T19:57:06.753Z,23.60
2018-06-29T19:59:11.004Z,23.50
2018-06-29T20:01:14.909Z,23.40
2018-06-29T20:03:21.742Z,23.40
2018-06-29T20:05:25.980Z,23.20
2018-06-29T20:07:29.804Z,23.10
2018-06-29T20:09:33.720Z,23.20
2018-06-29T20:11:37.718Z,23.30
2018-06-29T20:13:41.966Z,23.20
2018-06-29T20:15:45.736Z,23.30
2018-06-29T20:17:49.653Z,23.40
2018-06-29T20:19:53.440Z,23.20
2018-06-29T20:21:57.353Z,23.20
2018-06-29T20:24:01.253Z,23.10
2018-06-29T20:26:05.433Z,23.00
2018-06-29T20:28:09.246Z,22.90
2018-06-29T20:30:14.071Z,23.00
2018-06-29T20:32:17.878Z,23.00
2018-06-29T20:34:21.812Z,22.90
2018-06-29T20:36:25.557Z,22.80
2018-06-29T20:38:29.514Z,22.80
2018-06-29T20:40:33.245Z,22.70
2018-06-29T20:42:37.164Z,22.70
2018-06-29T20:44:40.946Z,22.60
2018-06-29T20:46:44.896Z,22.60
2018-06-29T20:48:48.652Z,22.60
2018-06-29T20:50:52.676Z,22.50
2018-06-29T20:52:56.447Z,22.50
2018-06-29T20:55:00.354Z,22.30
2018-06-29T20:57:04.199Z,22.30
2018-06-29T20:59:09.423Z,22.30
2018-06-29T21:01:13.347Z,22.30
2018-06-29T21:03:17.186Z,22.20
2018-06-29T21:05:21.107Z,22.20
2018-06-29T21:07:25.036Z,22.20
2018-06-29T21:09:28.926Z,22.20
2018-06-29T21:11:32.743Z,22.20
2018-06-29T21:13:36.661Z,22.20
2018-06-29T21:15:40.448Z,22.00
2018-06-29T21:17:44.461Z,22.00
2018-06-29T21:19:48.226Z,22.00
2018-06-29T21:21:52.215Z,22.00
2018-06-29T21:23:56.022Z,22.00
2018-06-29T21:25:59.967Z,21.90
2018-06-29T21:28:03.752Z,21.80
2018-06-29T21:30:08.454Z,21.70
2018-06-29T21:32:12.240Z,21.60
2018-06-29T21:34:16.155Z,21.60
2018-06-29T21:36:19.961Z,21.60
2018-06-29T21:38:23.858Z,21.50
2018-06-29T21:40:27.670Z,21.60
2018-06-29T21:42:31.671Z,21.50
2018-06-29T21:44:35.441Z,21.50
2018-06-29T21:46:39.350Z,21.40
2018-06-29T21:48:43.130Z,21.40
2018-06-29T21:50:47.046Z,21.20
2018-06-29T21:52:50.841Z,21.30
2018-06-29T21:54:54.775Z,21.20
2018-06-29T21:56:58.580Z,21.10
2018-06-29T21:59:02.525Z,21.10
2018-06-29T22:01:06.434Z,21.20
2018-06-29T22:03:12.464Z,21.10
2018-06-29T22:05:17.699Z,21.10
2018-06-29T22:07:21.600Z,21.00
2018-06-29T22:09:25.393Z,21.00
2018-06-29T22:11:29.969Z,20.90
2018-06-29T22:13:33.745Z,20.80
2018-06-29T22:15:37.650Z,20.80
2018-06-29T22:17:41.494Z,20.80
2018-06-29T22:19:45.550Z,20.80
2018-06-29T22:21:49.390Z,20.80
2018-06-29T22:23:53.463Z,20.80
2018-06-29T22:25:57.239Z,20.70
2018-06-29T22:28:01.226Z,20.70
2018-06-29T22:30:05.166Z,20.60
2018-06-29T22:32:09.069Z,20.60
2018-06-29T22:34:12.865Z,20.40
2018-06-29T22:36:16.807Z,20.40
2018-06-29T22:38:20.601Z,20.40
2018-06-29T22:42:27.899Z,20.30
2018-06-29T22:44:31.865Z,20.40
2018-06-29T22:46:35.680Z,20.30
2018-06-29T22:48:39.630Z,20.30
2018-06-29T22:50:43.452Z,20.20
2018-06-29T22:52:47.422Z,20.10
2018-06-29T22:54:51.196Z,20.10
2018-06-29T22:56:55.104Z,20.10
2018-06-29T22:58:59.277Z,20.00
2018-06-29T23:01:03.211Z,19.90
2018-06-29T23:03:10.185Z,19.90
2018-06-29T23:05:14.378Z,19.90
2018-06-29T23:07:18.177Z,19.90
2018-06-29T23:09:22.106Z,19.80
2018-06-29T23:11:25.875Z,19.80
2018-06-29T23:13:29.972Z,19.70
2018-06-29T23:15:33.776Z,19.70
2018-06-29T23:17:37.675Z,19.70
2018-06-29T23:19:41.519Z,19.70
2018-06-29T23:21:45.440Z,19.60
2018-06-29T23:23:49.257Z,19.60
2018-06-29T23:25:53.193Z,19.50
2018-06-29T23:27:56.977Z,19.50
2018-06-29T23:30:00.882Z,19.40
2018-06-29T23:32:04.684Z,19.40
2018-06-29T23:34:08.667Z,19.30
2018-06-29T23:36:12.493Z,19.30
2018-06-29T23:38:16.388Z,19.30
2018-06-29T23:40:20.239Z,19.30
2018-06-29T23:42:24.153Z,19.20
2018-06-29T23:44:27.974Z,19.20
2018-06-29T23:46:31.929Z,19.10
2018-06-29T23:48:35.727Z,19.10
2018-06-29T23:50:39.660Z,19.00
2018-06-29T23:52:43.482Z,19.00
2018-06-29T23:54:47.432Z,19.00
2018-06-29T23:56:51.299Z,19.00
2018-06-29T23:58:55.215Z,18.90
